sensor_id;sensor_type;location;lat;lon;timestamp;P1;durP1;ratioP1;P2;durP2;ratioP2
80421;SDS011;69763;50.182;9.144;2024-03-08T04:31:17;24.45;;;12.15;;
80421;SDS011;69763;50.182;9.144;2024-03-08T04:33:42;29.48;;;12.20;;
80421;SDS011;69763;50.182;9.144;2024-03-08T04:36:08;27.10;;;13.93;;
80421;SDS011;69763;50.182;9.144;2024-03-08T04:38:33;28.45;;;13.00;;
80421;SDS011;69763;50.182;9.144;2024-03-08T04:40:59;27.35;;;12.00;;
80421;SDS011;69763;50.182;9.144;2024-03-08T04:43:24;32.78;;;13.15;;
80421;SDS011;69763;50.182;9.144;2024-03-08T04:45:52;25.35;;;11.68;;
80421;SDS011;69763;50.182;9.144;2024-03-08T04:48:17;27.88;;;12.85;;
80421;SDS011;69763;50.182;9.144;2024-03-08T04:50:42;24.90;;;12.80;;
80421;SDS011;69763;50.182;9.144;2024-03-08T04:53:08;27.40;;;12.65;;
80421;SDS011;69763;50.182;9.144;2024-03-08T04:55:33;30.45;;;12.60;;
80421;SDS011;69763;50.182;9.144;2024-03-08T04:57:59;29.13;;;12.68;;
80421;SDS011;69763;50.182;9.144;2024-03-08T05:00:24;23.85;;;11.13;;
80421;SDS011;69763;50.182;9.144;2024-03-08T05:02:51;26.27;;;12.48;;
80421;SDS011;69763;50.182;9.144;2024-03-08T05:05:16;31.92;;;13.52;;
80421;SDS011;69763;50.182;9.144;2024-03-08T05:07:41;26.75;;;12.02;;
80421;SDS011;69763;50.182;9.144;2024-03-08T05:10:07;28.50;;;11.95;;
80421;SDS011;69763;50.182;9.144;2024-03-08T05:12:33;26.13;;;13.25;;
80421;SDS011;69763;50.182;9.144;2024-03-08T05:14:58;29.17;;;12.70;;
80421;SDS011;69763;50.182;9.144;2024-03-08T05:17:23;28.55;;;11.93;;
80421;SDS011;69763;50.182;9.144;2024-03-08T05:19:50;28.55;;;12.35;;
80421;SDS011;69763;50.182;9.144;2024-03-08T05:22:16;33.45;;;13.25;;
80421;SDS011;69763;50.182;9.144;2024-03-08T05:24:41;28.30;;;13.05;;
80421;SDS011;69763;50.182;9.144;2024-03-08T05:27:06;30.58;;;12.98;;
80421;SDS011;69763;50.182;9.144;2024-03-08T05:29:32;31.75;;;12.40;;
80421;SDS011;69763;50.182;9.144;2024-03-08T05:31:57;29.45;;;13.82;;
80421;SDS011;69763;50.182;9.144;2024-03-08T05:34:23;28.42;;;12.68;;
80421;SDS011;69763;50.182;9.144;2024-03-08T05:36:49;33.10;;;14.80;;
80421;SDS011;69763;50.182;9.144;2024-03-08T05:39:15;31.50;;;12.05;;
80421;SDS011;69763;50.182;9.144;2024-03-08T05:41:41;24.35;;;11.95;;
80421;SDS011;69763;50.182;9.144;2024-03-08T05:44:07;33.10;;;13.75;;
80421;SDS011;69763;50.182;9.144;2024-03-08T05:46:33;25.58;;;12.20;;
80421;SDS011;69763;50.182;9.144;2024-03-08T05:48:58;31.92;;;12.93;;
80421;SDS011;69763;50.182;9.144;2024-03-08T05:51:24;32.05;;;12.77;;
80421;SDS011;69763;50.182;9.144;2024-03-08T05:53:50;34.15;;;13.05;;
80421;SDS011;69763;50.182;9.144;2024-03-08T05:56:16;30.65;;;13.43;;
80421;SDS011;69763;50.182;9.144;2024-03-08T05:58:41;27.85;;;13.65;;
80421;SDS011;69763;50.182;9.144;2024-03-08T06:01:07;31.92;;;13.00;;
80421;SDS011;69763;50.182;9.144;2024-03-08T06:03:32;34.38;;;13.25;;
80421;SDS011;69763;50.182;9.144;2024-03-08T06:05:57;32.95;;;14.27;;
80421;SDS011;69763;50.182;9.144;2024-03-08T06:08:23;29.63;;;13.65;;
80421;SDS011;69763;50.182;9.144;2024-03-08T06:10:49;28.73;;;12.98;;
80421;SDS011;69763;50.182;9.144;2024-03-08T06:13:15;24.02;;;11.75;;
80421;SDS011;69763;50.182;9.144;2024-03-08T06:15:40;29.20;;;12.57;;
80421;SDS011;69763;50.182;9.144;2024-03-08T06:18:06;32.10;;;14.10;;
80421;SDS011;69763;50.182;9.144;2024-03-08T06:20:31;31.75;;;12.70;;
80421;SDS011;69763;50.182;9.144;2024-03-08T06:22:56;32.17;;;13.18;;
80421;SDS011;69763;50.182;9.144;2024-03-08T06:25:22;31.35;;;13.57;;
80421;SDS011;69763;50.182;9.144;2024-03-08T06:27:48;31.15;;;13.35;;
80421;SDS011;69763;50.182;9.144;2024-03-08T06:30:14;27.60;;;11.90;;
80421;SDS011;69763;50.182;9.144;2024-03-08T06:32:40;26.15;;;12.27;;
80421;SDS011;69763;50.182;9.144;2024-03-08T06:35:06;31.80;;;12.75;;
80421;SDS011;69763;50.182;9.144;2024-03-08T06:37:31;26.25;;;12.45;;
80421;SDS011;69763;50.182;9.144;2024-03-08T06:39:57;30.10;;;12.98;;
80421;SDS011;69763;50.182;9.144;2024-03-08T06:42:22;24.88;;;12.25;;
80421;SDS011;69763;50.182;9.144;2024-03-08T06:44:49;37.35;;;13.65;;
80421;SDS011;69763;50.182;9.144;2024-03-08T06:47:14;32.15;;;13.23;;
80421;SDS011;69763;50.182;9.144;2024-03-08T06:49:40;31.10;;;12.05;;
80421;SDS011;69763;50.182;9.144;2024-03-08T06:52:05;32.15;;;13.43;;
80421;SDS011;69763;50.182;9.144;2024-03-08T06:54:30;25.50;;;12.02;;
80421;SDS011;69763;50.182;9.144;2024-03-08T06:56:56;28.70;;;12.52;;
80421;SDS011;69763;50.182;9.144;2024-03-08T06:59:21;37.00;;;13.23;;
80421;SDS011;69763;50.182;9.144;2024-03-08T07:01:48;32.40;;;13.43;;
80421;SDS011;69763;50.182;9.144;2024-03-08T07:04:13;26.88;;;11.93;;
80421;SDS011;69763;50.182;9.144;2024-03-08T07:06:39;38.90;;;14.52;;
80421;SDS011;69763;50.182;9.144;2024-03-08T07:09:04;30.67;;;12.25;;
80421;SDS011;69763;50.182;9.144;2024-03-08T07:11:29;30.77;;;12.80;;
80421;SDS011;69763;50.182;9.144;2024-03-08T07:13:55;28.92;;;12.73;;
80421;SDS011;69763;50.182;9.144;2024-03-08T07:16:20;32.88;;;13.20;;
80421;SDS011;69763;50.182;9.144;2024-03-08T07:18:47;28.40;;;12.80;;
80421;SDS011;69763;50.182;9.144;2024-03-08T07:21:12;33.60;;;14.85;;
80421;SDS011;69763;50.182;9.144;2024-03-08T07:23:38;30.60;;;13.90;;
80421;SDS011;69763;50.182;9.144;2024-03-08T07:26:03;34.00;;;15.25;;
80421;SDS011;69763;50.182;9.144;2024-03-08T07:28:29;28.42;;;13.18;;
80421;SDS011;69763;50.182;9.144;2024-03-08T07:30:54;36.08;;;14.52;;
80421;SDS011;69763;50.182;9.144;2024-03-08T07:33:19;27.90;;;13.05;;
80421;SDS011;69763;50.182;9.144;2024-03-08T07:35:46;29.23;;;12.95;;
80421;SDS011;69763;50.182;9.144;2024-03-08T07:38:11;26.92;;;12.05;;
80421;SDS011;69763;50.182;9.144;2024-03-08T07:40:37;29.08;;;12.57;;
80421;SDS011;69763;50.182;9.144;2024-03-08T07:43:03;28.48;;;12.23;;
80421;SDS011;69763;50.182;9.144;2024-03-08T07:45:28;29.05;;;13.23;;
80421;SDS011;69763;50.182;9.144;2024-03-08T07:47:54;26.92;;;12.23;;
80421;SDS011;69763;50.182;9.144;2024-03-08T07:50:19;32.72;;;12.88;;
80421;SDS011;69763;50.182;9.144;2024-03-08T07:52:46;27.95;;;12.35;;
80421;SDS011;69763;50.182;9.144;2024-03-08T07:55:11;28.10;;;12.85;;
80421;SDS011;69763;50.182;9.144;2024-03-08T07:57:37;30.27;;;12.52;;
80421;SDS011;69763;50.182;9.144;2024-03-08T08:00:02;26.90;;;13.30;;
80421;SDS011;69763;50.182;9.144;2024-03-08T08:02:28;32.63;;;13.07;;
80421;SDS011;69763;50.182;9.144;2024-03-08T08:04:54;25.00;;;11.65;;
80421;SDS011;69763;50.182;9.144;2024-03-08T08:07:19;20.92;;;10.80;;
80421;SDS011;69763;50.182;9.144;2024-03-08T08:09:46;30.40;;;13.57;;
80421;SDS011;69763;50.182;9.144;2024-03-08T08:12:11;26.50;;;12.27;;
80421;SDS011;69763;50.182;9.144;2024-03-08T08:14:36;33.30;;;12.57;;
80421;SDS011;69763;50.182;9.144;2024-03-08T08:17:02;26.35;;;12.05;;
80421;SDS011;69763;50.182;9.144;2024-03-08T08:19:27;26.75;;;12.32;;
80421;SDS011;69763;50.182;9.144;2024-03-08T08:21:53;28.92;;;11.57;;
80421;SDS011;69763;50.182;9.144;2024-03-08T08:24:18;29.08;;;12.82;;
80421;SDS011;69763;50.182;9.144;2024-03-08T08:26:45;25.90;;;12.88;;
80421;SDS011;69763;50.182;9.144;2024-03-08T08:29:10;29.80;;;12.38;;
80421;SDS011;69763;50.182;9.144;2024-03-08T08:31:36;28.55;;;12.60;;
80421;SDS011;69763;50.182;9.144;2024-03-08T08:34:01;29.85;;;13.15;;
80421;SDS011;69763;50.182;9.144;2024-03-08T08:36:26;25.13;;;13.15;;
80421;SDS011;69763;50.182;9.144;2024-03-08T08:38:52;29.67;;;12.35;;
80421;SDS011;69763;50.182;9.144;2024-03-08T08:41:17;30.50;;;13.63;;
80421;SDS011;69763;50.182;9.144;2024-03-08T08:43:44;31.50;;;11.85;;
80421;SDS011;69763;50.182;9.144;2024-03-08T08:46:09;29.70;;;11.88;;
80421;SDS011;69763;50.182;9.144;2024-03-08T08:48:35;27.08;;;11.27;;
80421;SDS011;69763;50.182;9.144;2024-03-08T08:51:00;25.98;;;11.50;;
80421;SDS011;69763;50.182;9.144;2024-03-08T08:53:26;23.42;;;11.15;;
80421;SDS011;69763;50.182;9.144;2024-03-08T08:55:51;25.02;;;10.60;;
80421;SDS011;69763;50.182;9.144;2024-03-08T08:58:16;25.77;;;11.93;;
80421;SDS011;69763;50.182;9.144;2024-03-08T09:00:43;24.05;;;11.18;;
80421;SDS011;69763;50.182;9.144;2024-03-08T09:05:34;28.63;;;10.03;;
80421;SDS011;69763;50.182;9.144;2024-03-08T09:07:59;22.17;;;10.13;;
80421;SDS011;69763;50.182;9.144;2024-03-08T09:10:24;24.55;;;11.82;;
80421;SDS011;69763;50.182;9.144;2024-03-08T09:12:50;24.08;;;10.60;;
80421;SDS011;69763;50.182;9.144;2024-03-08T09:15:15;19.60;;;10.43;;
80421;SDS011;69763;50.182;9.144;2024-03-08T09:17:42;22.45;;;10.57;;
80421;SDS011;69763;50.182;9.144;2024-03-08T09:22:34;23.70;;;10.23;;
80421;SDS011;69763;50.182;9.144;2024-03-08T09:24:59;20.83;;;9.50;;
80421;SDS011;69763;50.182;9.144;2024-03-08T09:27:25;22.85;;;10.00;;
80421;SDS011;69763;50.182;9.144;2024-03-08T09:29:50;21.05;;;9.98;;
80421;SDS011;69763;50.182;9.144;2024-03-08T09:32:15;19.80;;;10.15;;
80421;SDS011;69763;50.182;9.144;2024-03-08T09:34:42;17.42;;;10.05;;
80421;SDS011;69763;50.182;9.144;2024-03-08T09:39:33;17.33;;;8.10;;
80421;SDS011;69763;50.182;9.144;2024-03-08T09:41:58;20.20;;;9.15;;
80421;SDS011;69763;50.182;9.144;2024-03-08T09:44:24;18.67;;;8.80;;
80421;SDS011;69763;50.182;9.144;2024-03-08T09:46:49;18.42;;;9.45;;
80421;SDS011;69763;50.182;9.144;2024-03-08T09:49:15;19.83;;;9.23;;
80421;SDS011;69763;50.182;9.144;2024-03-08T09:51:42;21.67;;;9.30;;
80421;SDS011;69763;50.182;9.144;2024-03-08T09:54:08;20.55;;;9.20;;
80421;SDS011;69763;50.182;9.144;2024-03-08T09:56:33;18.95;;;9.95;;
80421;SDS011;69763;50.182;9.144;2024-03-08T09:59:00;21.40;;;9.77;;
80421;SDS011;69763;50.182;9.144;2024-03-08T10:01:25;20.13;;;8.40;;
80421;SDS011;69763;50.182;9.144;2024-03-08T10:03:51;20.48;;;9.65;;
80421;SDS011;69763;50.182;9.144;2024-03-08T10:06:18;17.20;;;9.35;;
80421;SDS011;69763;50.182;9.144;2024-03-08T10:08:49;15.43;;;8.00;;
80421;SDS011;69763;50.182;9.144;2024-03-08T10:11:14;18.38;;;9.73;;
80421;SDS011;69763;50.182;9.144;2024-03-08T10:13:39;15.30;;;8.90;;
80421;SDS011;69763;50.182;9.144;2024-03-08T10:16:05;21.48;;;8.68;;
80421;SDS011;69763;50.182;9.144;2024-03-08T10:18:32;18.63;;;7.85;;
80421;SDS011;69763;50.182;9.144;2024-03-08T10:21:05;17.83;;;8.68;;
80421;SDS011;69763;50.182;9.144;2024-03-08T10:23:32;19.45;;;8.73;;
80421;SDS011;69763;50.182;9.144;2024-03-08T10:25:59;15.85;;;8.77;;
80421;SDS011;69763;50.182;9.144;2024-03-08T10:28:34;17.55;;;8.38;;
80421;SDS011;69763;50.182;9.144;2024-03-08T10:31:00;22.70;;;9.75;;
80421;SDS011;69763;50.182;9.144;2024-03-08T10:33:25;17.95;;;8.77;;
80421;SDS011;69763;50.182;9.144;2024-03-08T10:35:51;16.02;;;9.30;;
80421;SDS011;69763;50.182;9.144;2024-03-08T10:38:16;19.13;;;9.30;;
80421;SDS011;69763;50.182;9.144;2024-03-08T10:40:45;18.67;;;8.70;;
80421;SDS011;69763;50.182;9.144;2024-03-08T10:43:21;16.33;;;8.40;;
80421;SDS011;69763;50.182;9.144;2024-03-08T10:45:48;17.83;;;8.80;;
80421;SDS011;69763;50.182;9.144;2024-03-08T10:48:18;21.33;;;9.07;;
80421;SDS011;69763;50.182;9.144;2024-03-08T10:50:52;14.60;;;7.65;;
80421;SDS011;69763;50.182;9.144;2024-03-08T10:53:18;16.65;;;8.10;;
80421;SDS011;69763;50.182;9.144;2024-03-08T10:55:44;16.92;;;7.78;;
80421;SDS011;69763;50.182;9.144;2024-03-08T10:58:12;16.50;;;8.68;;
80421;SDS011;69763;50.182;9.144;2024-03-08T11:03:03;17.55;;;7.68;;
80421;SDS011;69763;50.182;9.144;2024-03-08T11:05:32;14.85;;;7.68;;
80421;SDS011;69763;50.182;9.144;2024-03-08T11:08:02;16.90;;;7.88;;
80421;SDS011;69763;50.182;9.144;2024-03-08T11:10:28;15.95;;;8.68;;
80421;SDS011;69763;50.182;9.144;2024-03-08T11:12:53;21.73;;;9.85;;
80421;SDS011;69763;50.182;9.144;2024-03-08T11:15:20;18.10;;;8.35;;
80421;SDS011;69763;50.182;9.144;2024-03-08T11:17:45;21.77;;;9.35;;
80421;SDS011;69763;50.182;9.144;2024-03-08T11:20:13;18.10;;;7.95;;
80421;SDS011;69763;50.182;9.144;2024-03-08T11:22:42;16.85;;;8.15;;
80421;SDS011;69763;50.182;9.144;2024-03-08T11:28:06;17.17;;;8.50;;
80421;SDS011;69763;50.182;9.144;2024-03-08T11:30:34;14.77;;;7.63;;
80421;SDS011;69763;50.182;9.144;2024-03-08T11:33:00;19.02;;;7.20;;
80421;SDS011;69763;50.182;9.144;2024-03-08T11:35:26;14.98;;;7.78;;
80421;SDS011;69763;50.182;9.144;2024-03-08T11:37:51;14.63;;;6.65;;
80421;SDS011;69763;50.182;9.144;2024-03-08T11:40:16;14.43;;;6.95;;
80421;SDS011;69763;50.182;9.144;2024-03-08T11:42:43;16.67;;;7.30;;
80421;SDS011;69763;50.182;9.144;2024-03-08T11:45:09;14.73;;;7.22;;
80421;SDS011;69763;50.182;9.144;2024-03-08T11:47:36;14.55;;;7.68;;
80421;SDS011;69763;50.182;9.144;2024-03-08T11:50:02;17.77;;;7.95;;
80421;SDS011;69763;50.182;9.144;2024-03-08T11:52:27;22.92;;;8.50;;
80421;SDS011;69763;50.182;9.144;2024-03-08T11:54:53;16.52;;;9.45;;
80421;SDS011;69763;50.182;9.144;2024-03-08T11:59:49;21.95;;;8.75;;
80421;SDS011;69763;50.182;9.144;2024-03-08T12:02:15;18.23;;;8.73;;
80421;SDS011;69763;50.182;9.144;2024-03-08T12:04:41;17.83;;;8.63;;
80421;SDS011;69763;50.182;9.144;2024-03-08T12:07:09;18.55;;;7.82;;
80421;SDS011;69763;50.182;9.144;2024-03-08T12:09:35;21.38;;;9.45;;
80421;SDS011;69763;50.182;9.144;2024-03-08T12:12:00;19.98;;;8.65;;
80421;SDS011;69763;50.182;9.144;2024-03-08T12:14:26;19.15;;;9.10;;
80421;SDS011;69763;50.182;9.144;2024-03-08T12:16:51;19.88;;;9.13;;
80421;SDS011;69763;50.182;9.144;2024-03-08T12:19:16;17.13;;;8.57;;
80421;SDS011;69763;50.182;9.144;2024-03-08T12:21:44;15.98;;;8.65;;
80421;SDS011;69763;50.182;9.144;2024-03-08T12:24:10;21.15;;;9.35;;
80421;SDS011;69763;50.182;9.144;2024-03-08T12:26:35;24.73;;;9.35;;
80421;SDS011;69763;50.182;9.144;2024-03-08T12:29:14;18.48;;;9.40;;
80421;SDS011;69763;50.182;9.144;2024-03-08T12:31:40;19.88;;;8.93;;
80421;SDS011;69763;50.182;9.144;2024-03-08T12:34:07;19.42;;;9.63;;
80421;SDS011;69763;50.182;9.144;2024-03-08T12:36:32;23.80;;;10.60;;
80421;SDS011;69763;50.182;9.144;2024-03-08T12:38:59;17.90;;;9.23;;
80421;SDS011;69763;50.182;9.144;2024-03-08T12:41:24;19.52;;;10.13;;
80421;SDS011;69763;50.182;9.144;2024-03-08T12:43:50;23.00;;;10.43;;
80421;SDS011;69763;50.182;9.144;2024-03-08T12:46:15;24.27;;;10.50;;
80421;SDS011;69763;50.182;9.144;2024-03-08T12:48:41;21.90;;;9.32;;
80421;SDS011;69763;50.182;9.144;2024-03-08T12:51:07;20.98;;;10.45;;
80421;SDS011;69763;50.182;9.144;2024-03-08T12:53:32;25.15;;;10.38;;
80421;SDS011;69763;50.182;9.144;2024-03-08T12:55:59;18.70;;;9.00;;
80421;SDS011;69763;50.182;9.144;2024-03-08T12:58:25;20.70;;;10.50;;
80421;SDS011;69763;50.182;9.144;2024-03-08T13:00:50;19.30;;;9.98;;
80421;SDS011;69763;50.182;9.144;2024-03-08T13:03:16;22.67;;;9.85;;
80421;SDS011;69763;50.182;9.144;2024-03-08T13:05:41;19.80;;;10.40;;
80421;SDS011;69763;50.182;9.144;2024-03-08T13:08:06;22.20;;;10.10;;
80421;SDS011;69763;50.182;9.144;2024-03-08T13:10:32;21.67;;;8.77;;
80421;SDS011;69763;50.182;9.144;2024-03-08T13:12:59;24.63;;;10.85;;
80421;SDS011;69763;50.182;9.144;2024-03-08T13:15:24;20.98;;;10.27;;
80421;SDS011;69763;50.182;9.144;2024-03-08T13:17:49;22.83;;;10.48;;
80421;SDS011;69763;50.182;9.144;2024-03-08T13:20:15;20.27;;;11.23;;
80421;SDS011;69763;50.182;9.144;2024-03-08T13:22:40;22.83;;;11.20;;
80421;SDS011;69763;50.182;9.144;2024-03-08T13:25:06;19.77;;;8.85;;
80421;SDS011;69763;50.182;9.144;2024-03-08T13:27:32;22.80;;;10.20;;
80421;SDS011;69763;50.182;9.144;2024-03-08T13:29:58;22.17;;;11.48;;
80421;SDS011;69763;50.182;9.144;2024-03-08T13:32:24;23.17;;;10.73;;
80421;SDS011;69763;50.182;9.144;2024-03-08T13:34:49;17.13;;;9.40;;
80421;SDS011;69763;50.182;9.144;2024-03-08T13:37:14;21.08;;;9.20;;
80421;SDS011;69763;50.182;9.144;2024-03-08T13:39:40;21.73;;;9.80;;
80421;SDS011;69763;50.182;9.144;2024-03-08T13:42:06;19.40;;;10.15;;
80421;SDS011;69763;50.182;9.144;2024-03-08T13:44:31;24.08;;;10.93;;
80421;SDS011;69763;50.182;9.144;2024-03-08T13:46:58;18.23;;;9.18;;
80421;SDS011;69763;50.182;9.144;2024-03-08T13:49:23;18.60;;;9.15;;
80421;SDS011;69763;50.182;9.144;2024-03-08T13:51:49;18.60;;;8.65;;
80421;SDS011;69763;50.182;9.144;2024-03-08T13:54:14;19.85;;;8.55;;
80421;SDS011;69763;50.182;9.144;2024-03-08T13:56:39;18.48;;;9.20;;
80421;SDS011;69763;50.182;9.144;2024-03-08T13:59:05;18.77;;;8.95;;
80421;SDS011;69763;50.182;9.144;2024-03-08T14:01:30;17.00;;;8.40;;
80421;SDS011;69763;50.182;9.144;2024-03-08T14:04:05;17.42;;;8.80;;
80421;SDS011;69763;50.182;9.144;2024-03-08T14:06:30;19.50;;;7.80;;
80421;SDS011;69763;50.182;9.144;2024-03-08T14:08:55;21.08;;;8.48;;
80421;SDS011;69763;50.182;9.144;2024-03-08T14:11:21;18.45;;;8.55;;
80421;SDS011;69763;50.182;9.144;2024-03-08T14:13:46;18.15;;;7.78;;
80421;SDS011;69763;50.182;9.144;2024-03-08T14:16:11;18.08;;;9.40;;
80421;SDS011;69763;50.182;9.144;2024-03-08T14:18:37;16.65;;;9.23;;
80421;SDS011;69763;50.182;9.144;2024-03-08T14:21:04;18.30;;;8.57;;
80421;SDS011;69763;50.182;9.144;2024-03-08T14:23:30;19.02;;;8.82;;
80421;SDS011;69763;50.182;9.144;2024-03-08T14:25:55;17.55;;;8.85;;
80421;SDS011;69763;50.182;9.144;2024-03-08T14:28:20;19.10;;;8.52;;
80421;SDS011;69763;50.182;9.144;2024-03-08T14:30:46;19.48;;;7.75;;
80421;SDS011;69763;50.182;9.144;2024-03-08T14:33:11;17.40;;;8.60;;
80421;SDS011;69763;50.182;9.144;2024-03-08T14:35:37;16.48;;;8.02;;
80421;SDS011;69763;50.182;9.144;2024-03-08T14:38:06;15.13;;;8.80;;
80421;SDS011;69763;50.182;9.144;2024-03-08T14:40:31;16.38;;;8.50;;
80421;SDS011;69763;50.182;9.144;2024-03-08T14:42:56;17.05;;;8.13;;
80421;SDS011;69763;50.182;9.144;2024-03-08T14:45:22;15.57;;;7.90;;
80421;SDS011;69763;50.182;9.144;2024-03-08T14:47:48;14.32;;;7.85;;
80421;SDS011;69763;50.182;9.144;2024-03-08T14:50:16;17.75;;;7.88;;
80421;SDS011;69763;50.182;9.144;2024-03-08T14:52:41;16.55;;;8.07;;
80421;SDS011;69763;50.182;9.144;2024-03-08T14:55:08;17.27;;;7.85;;
80421;SDS011;69763;50.182;9.144;2024-03-08T14:57:34;18.55;;;7.72;;
80421;SDS011;69763;50.182;9.144;2024-03-08T14:59:59;12.88;;;6.55;;
80421;SDS011;69763;50.182;9.144;2024-03-08T15:02:25;17.60;;;8.40;;
80421;SDS011;69763;50.182;9.144;2024-03-08T15:04:50;15.57;;;7.43;;
80421;SDS011;69763;50.182;9.144;2024-03-08T15:07:15;15.93;;;7.05;;
80421;SDS011;69763;50.182;9.144;2024-03-08T15:12:08;14.97;;;7.37;;
80421;SDS011;69763;50.182;9.144;2024-03-08T15:14:38;12.90;;;6.95;;
80421;SDS011;69763;50.182;9.144;2024-03-08T15:17:05;14.48;;;7.13;;
80421;SDS011;69763;50.182;9.144;2024-03-08T15:19:30;17.50;;;7.22;;
80421;SDS011;69763;50.182;9.144;2024-03-08T15:21:55;14.43;;;6.90;;
80421;SDS011;69763;50.182;9.144;2024-03-08T15:24:21;13.85;;;6.78;;
80421;SDS011;69763;50.182;9.144;2024-03-08T15:26:46;14.05;;;6.55;;
80421;SDS011;69763;50.182;9.144;2024-03-08T15:29:13;12.00;;;6.47;;
80421;SDS011;69763;50.182;9.144;2024-03-08T15:31:38;14.55;;;6.93;;
80421;SDS011;69763;50.182;9.144;2024-03-08T15:34:04;14.65;;;7.20;;
80421;SDS011;69763;50.182;9.144;2024-03-08T15:36:29;18.33;;;6.85;;
80421;SDS011;69763;50.182;9.144;2024-03-08T15:38:54;12.32;;;5.97;;
80421;SDS011;69763;50.182;9.144;2024-03-08T15:41:20;12.25;;;6.72;;
80421;SDS011;69763;50.182;9.144;2024-03-08T15:43:45;14.95;;;6.40;;
80421;SDS011;69763;50.182;9.144;2024-03-08T15:46:12;16.45;;;7.95;;
80421;SDS011;69763;50.182;9.144;2024-03-08T15:48:38;14.48;;;6.88;;
80421;SDS011;69763;50.182;9.144;2024-03-08T15:51:03;14.63;;;6.53;;
80421;SDS011;69763;50.182;9.144;2024-03-08T15:53:29;13.02;;;6.65;;
80421;SDS011;69763;50.182;9.144;2024-03-08T15:55:55;12.32;;;6.45;;
80421;SDS011;69763;50.182;9.144;2024-03-08T15:58:20;12.38;;;6.18;;
80421;SDS011;69763;50.182;9.144;2024-03-08T16:00:46;15.52;;;6.47;;
80421;SDS011;69763;50.182;9.144;2024-03-08T16:03:13;10.60;;;6.07;;
80421;SDS011;69763;50.182;9.144;2024-03-08T16:05:40;16.10;;;6.72;;
80421;SDS011;69763;50.182;9.144;2024-03-08T16:08:05;13.43;;;6.57;;
80421;SDS011;69763;50.182;9.144;2024-03-08T16:10:31;12.80;;;6.22;;
80421;SDS011;69763;50.182;9.144;2024-03-08T16:12:57;13.10;;;6.03;;
80421;SDS011;69763;50.182;9.144;2024-03-08T16:15:22;11.43;;;5.55;;
80421;SDS011;69763;50.182;9.144;2024-03-08T16:17:48;15.48;;;6.47;;
80421;SDS011;69763;50.182;9.144;2024-03-08T16:20:15;12.48;;;6.35;;
80421;SDS011;69763;50.182;9.144;2024-03-08T16:22:41;14.20;;;7.28;;
80421;SDS011;69763;50.182;9.144;2024-03-08T16:25:07;13.02;;;6.97;;
80421;SDS011;69763;50.182;9.144;2024-03-08T16:27:33;14.38;;;7.30;;
80421;SDS011;69763;50.182;9.144;2024-03-08T16:29:58;20.08;;;8.30;;
80421;SDS011;69763;50.182;9.144;2024-03-08T16:32:24;16.30;;;7.63;;
80421;SDS011;69763;50.182;9.144;2024-03-08T16:34:49;18.02;;;8.63;;
80421;SDS011;69763;50.182;9.144;2024-03-08T16:37:16;15.90;;;7.70;;
80421;SDS011;69763;50.182;9.144;2024-03-08T16:39:41;16.08;;;8.02;;
80421;SDS011;69763;50.182;9.144;2024-03-08T16:42:07;18.15;;;8.73;;
80421;SDS011;69763;50.182;9.144;2024-03-08T16:44:32;18.92;;;8.00;;
80421;SDS011;69763;50.182;9.144;2024-03-08T16:46:58;14.88;;;7.85;;
80421;SDS011;69763;50.182;9.144;2024-03-08T16:49:24;21.00;;;9.13;;
80421;SDS011;69763;50.182;9.144;2024-03-08T16:51:49;16.17;;;7.95;;
80421;SDS011;69763;50.182;9.144;2024-03-08T16:54:16;17.23;;;7.85;;
80421;SDS011;69763;50.182;9.144;2024-03-08T16:56:41;18.92;;;8.57;;
80421;SDS011;69763;50.182;9.144;2024-03-08T16:59:07;19.35;;;8.85;;
80421;SDS011;69763;50.182;9.144;2024-03-08T17:01:32;18.48;;;8.07;;
80421;SDS011;69763;50.182;9.144;2024-03-08T17:03:57;15.68;;;7.63;;
80421;SDS011;69763;50.182;9.144;2024-03-08T17:06:23;18.88;;;8.65;;
80421;SDS011;69763;50.182;9.144;2024-03-08T17:08:48;12.70;;;6.97;;
80421;SDS011;69763;50.182;9.144;2024-03-08T17:11:15;17.67;;;8.23;;
80421;SDS011;69763;50.182;9.144;2024-03-08T17:13:40;20.05;;;9.13;;
80421;SDS011;69763;50.182;9.144;2024-03-08T17:16:06;17.88;;;8.65;;
80421;SDS011;69763;50.182;9.144;2024-03-08T17:18:32;16.58;;;8.38;;
80421;SDS011;69763;50.182;9.144;2024-03-08T17:20:57;14.93;;;7.70;;
80421;SDS011;69763;50.182;9.144;2024-03-08T17:23:23;16.00;;;8.07;;
80421;SDS011;69763;50.182;9.144;2024-03-08T17:25:48;18.27;;;7.85;;
80421;SDS011;69763;50.182;9.144;2024-03-08T17:28:15;16.65;;;7.78;;
80421;SDS011;69763;50.182;9.144;2024-03-08T17:33:05;17.67;;;8.10;;
80421;SDS011;69763;50.182;9.144;2024-03-08T17:35:31;15.10;;;7.78;;
80421;SDS011;69763;50.182;9.144;2024-03-08T17:37:57;20.38;;;8.18;;
80421;SDS011;69763;50.182;9.144;2024-03-08T17:40:24;18.70;;;8.73;;
80421;SDS011;69763;50.182;9.144;2024-03-08T17:42:50;19.38;;;9.88;;
80421;SDS011;69763;50.182;9.144;2024-03-08T17:45:18;23.00;;;10.70;;
80421;SDS011;69763;50.182;9.144;2024-03-08T17:47:44;17.42;;;9.07;;
80421;SDS011;69763;50.182;9.144;2024-03-08T17:50:09;17.77;;;8.30;;
80421;SDS011;69763;50.182;9.144;2024-03-08T17:52:35;19.17;;;8.80;;
80421;SDS011;69763;50.182;9.144;2024-03-08T17:55:00;20.80;;;8.82;;
80421;SDS011;69763;50.182;9.144;2024-03-08T17:57:25;16.65;;;7.50;;
80421;SDS011;69763;50.182;9.144;2024-03-08T17:59:51;15.05;;;8.15;;
80421;SDS011;69763;50.182;9.144;2024-03-08T18:02:17;18.80;;;8.60;;
80421;SDS011;69763;50.182;9.144;2024-03-08T18:04:43;23.52;;;8.98;;
80421;SDS011;69763;50.182;9.144;2024-03-08T18:07:08;19.10;;;9.10;;
80421;SDS011;69763;50.182;9.144;2024-03-08T18:09:34;17.42;;;8.73;;
80421;SDS011;69763;50.182;9.144;2024-03-08T18:11:59;20.98;;;8.30;;
80421;SDS011;69763;50.182;9.144;2024-03-08T18:14:24;19.00;;;8.10;;
80421;SDS011;69763;50.182;9.144;2024-03-08T18:16:50;18.30;;;8.65;;
80421;SDS011;69763;50.182;9.144;2024-03-08T18:19:17;19.35;;;7.88;;
80421;SDS011;69763;50.182;9.144;2024-03-08T18:24:07;16.83;;;7.80;;
80421;SDS011;69763;50.182;9.144;2024-03-08T18:26:33;19.85;;;9.68;;
80421;SDS011;69763;50.182;9.144;2024-03-08T18:28:58;18.27;;;8.40;;
80421;SDS011;69763;50.182;9.144;2024-03-08T18:31:23;30.40;;;10.00;;
80421;SDS011;69763;50.182;9.144;2024-03-08T18:33:49;16.98;;;8.13;;
80421;SDS011;69763;50.182;9.144;2024-03-08T18:36:16;15.35;;;7.82;;
80421;SDS011;69763;50.182;9.144;2024-03-08T18:38:41;15.52;;;7.32;;
80421;SDS011;69763;50.182;9.144;2024-03-08T18:41:06;15.60;;;7.55;;
80421;SDS011;69763;50.182;9.144;2024-03-08T18:43:32;20.75;;;7.97;;
80421;SDS011;69763;50.182;9.144;2024-03-08T18:45:57;16.27;;;8.00;;
80421;SDS011;69763;50.182;9.144;2024-03-08T18:48:22;17.35;;;7.40;;
80421;SDS011;69763;50.182;9.144;2024-03-08T18:50:48;15.75;;;6.90;;
80421;SDS011;69763;50.182;9.144;2024-03-08T18:53:16;17.42;;;8.15;;
80421;SDS011;69763;50.182;9.144;2024-03-08T18:55:41;15.32;;;7.78;;
80421;SDS011;69763;50.182;9.144;2024-03-08T18:58:07;18.38;;;8.00;;
80421;SDS011;69763;50.182;9.144;2024-03-08T19:00:32;15.95;;;7.50;;
80421;SDS011;69763;50.182;9.144;2024-03-08T19:02:58;13.20;;;6.38;;
80421;SDS011;69763;50.182;9.144;2024-03-08T19:07:50;14.50;;;7.37;;
80421;SDS011;69763;50.182;9.144;2024-03-08T19:10:19;14.95;;;6.90;;
80421;SDS011;69763;50.182;9.144;2024-03-08T19:12:45;16.70;;;7.78;;
80421;SDS011;69763;50.182;9.144;2024-03-08T19:15:11;15.60;;;6.88;;